SLET

Details ICAO SLET
Name EL TROMPILLO
Region Bolivia
Timezone America/La_Paz (UTC-4.0)
Plans Departing 6
Arriving 4
Stats Elevation 1,371 ft / 418 m (AMSL)
Location -17.811581° -63.171481°
Runways 1
Magnetic Variation 11.819° W
Sunrise 2017-12-12 09:32:34 UTC / 2017-12-12 05:32:34 Local
Sunset 2017-12-12 22:43:17 UTC / 2017-12-12 18:43:17 Local
Advertisement - Login to hide

Runways

ID Width Length Bearing (true) Bearing (mag) Surface Threshold Offset Overrun Length
15 124 ft / 38 m 9,211 ft / 2,808 m 143.85° 155.67° Asphalt 0 ft / 0 m 0 ft / 0 m
33 124 ft / 38 m 9,211 ft / 2,808 m 323.85° 335.67° Asphalt 0 ft / 0 m 0 ft / 0 m

Map

Weather


0- 5 10 15 20 25 30 35+ Temperature / ° C

Clouds and Precipitation
Forecast for 2017-12-12 18:00 UTC. Updated an hour ago

Ground ~20,000 ft ~40,000 ft Winds

METAR

SLET 121400Z 15003KT 9999 FEW020 SCT200 32/20 Q1011

TAF

Not found

Frequencies

Ground 121.70 MHz GND
Approach 119.70 MHz VIRU VIRU APP
Tower 118.30 MHz TROMPILLO TWR
Warning: Do not use this data for real-world aviation or navigation. No guarantee of current accuracy is given.